»·PEaware :: N973DM KPSP-KTOA

N973DM :: KPSP-KTOA

FLIGHT INFORMATION

Flight Status: Arrived
Operator: Privately registered:
United States
More flights under this callsign
Pilot: Anonymous 1328 (1328)
Aircraft: CIRRUS SR-22
(SR22)
More flights by this aircraft type
Origin: KPSP Palm Springs Intl
United States
Destination: KTOA Zamperini
United States
More flights between these airports :: More routes between these airports
Route: +CATH1 PSP V388 ACINS V283 SLI
File this flight plan on PilotEdge
Remarks: PLEASE INCLUDE DP, FLIGHT IN IMC
Altitude:
(Current/Filed)
8,000ft
Speed:
(Current/Filed)
155kts
Departed: 09-Sep-14 06:45 PM
Arrived: 09-Sep-14 07:41 PM
Distance/Time
Traveled:
92nm/0:56
Distance/Time
To Go:
Arrived

Flight Plot

Page will automatically refresh every two minutes.


Map Options




Map Legend


Flown Route
Filed Route
Departure Airport
Arrival Airport
Navaid (VOR, NDB)
Fix

Horizontal Profiles

Position Reports

Time Latitude Longitude Heading Altitude Ground
Speed
09-Sep-14 18:10 33.826922 -116.500441 320 479ft 0kts
09-Sep-14 18:11 33.826922 -116.500441 320 479ft 0kts
09-Sep-14 18:12 33.826922 -116.500441 320 479ft 0kts
09-Sep-14 18:13 33.826922 -116.500441 320 479ft 0kts
09-Sep-14 18:14 33.826922 -116.500441 320 479ft 0kts
09-Sep-14 18:15 33.826922 -116.500441 320 479ft 0kts
09-Sep-14 18:16 33.826922 -116.500441 320 479ft 0kts
09-Sep-14 18:17 33.826922 -116.500441 320 479ft 0kts
09-Sep-14 18:18 33.826922 -116.500441 320 479ft 0kts
09-Sep-14 18:19 33.826922 -116.500441 320 479ft 0kts
09-Sep-14 18:20 33.826922 -116.500441 320 479ft 0kts
09-Sep-14 18:21 33.826922 -116.500441 320 479ft 0kts
09-Sep-14 18:22 33.826922 -116.500441 320 479ft 0kts
09-Sep-14 18:23 33.826922 -116.500441 320 479ft 0kts
09-Sep-14 18:24 33.826922 -116.500441 320 479ft 0kts
09-Sep-14 18:25 33.826922 -116.500441 320 479ft 0kts
09-Sep-14 18:26 33.826922 -116.500441 320 479ft 0kts
09-Sep-14 18:27 33.826922 -116.500441 320 479ft 0kts
09-Sep-14 18:28 33.826922 -116.500441 320 479ft 0kts
09-Sep-14 18:29 33.826922 -116.500441 320 479ft 0kts
09-Sep-14 18:30 33.826922 -116.500441 320 479ft 0kts
09-Sep-14 18:31 33.826922 -116.500441 320 479ft 0kts
09-Sep-14 18:32 33.826922 -116.500441 320 479ft 0kts
09-Sep-14 18:33 33.826922 -116.500441 320 479ft 0kts
09-Sep-14 18:34 33.826922 -116.500441 320 479ft 0kts
09-Sep-14 18:35 33.826922 -116.500441 320 479ft 0kts
09-Sep-14 18:36 33.826922 -116.500441 320 479ft 0kts
09-Sep-14 18:37 33.826922 -116.500441 320 479ft 0kts
09-Sep-14 18:38 33.826922 -116.500441 320 479ft 0kts
09-Sep-14 18:39 33.826922 -116.500441 320 479ft 0kts
09-Sep-14 18:40 33.826922 -116.500441 320 479ft 0kts
09-Sep-14 18:41 33.825823 -116.500372 148 479ft 23kts
09-Sep-14 18:42 33.824639 -116.499634 241 479ft 0kts
09-Sep-14 18:43 33.824639 -116.499634 241 479ft 0kts
09-Sep-14 18:44 33.829505 -116.504495 325 504ft 89kts
09-Sep-14 18:45 33.853672 -116.523727 321 1440ft 109kts
09-Sep-14 18:46 33.885983 -116.544759 323 2168ft 128kts
09-Sep-14 18:47 33.916360 -116.569023 327 3009ft 137kts
09-Sep-14 18:48 33.944859 -116.557985 89 3830ft 155kts
09-Sep-14 18:49 33.915978 -116.520362 134 4721ft 153kts
09-Sep-14 18:50 33.892848 -116.488844 116 5434ft 153kts
09-Sep-14 18:51 33.872465 -116.437425 122 6576ft 143kts
09-Sep-14 18:52 33.844388 -116.415953 167 6943ft 167kts
09-Sep-14 18:53 33.833325 -116.447178 321 7560ft 136kts
09-Sep-14 18:54 33.857482 -116.470583 321 8002ft 139kts
09-Sep-14 18:55 33.876604 -116.514204 283 8002ft 161kts
09-Sep-14 18:56 33.891388 -116.564192 289 8001ft 164kts
09-Sep-14 18:57 33.907274 -116.615873 294 8000ft 165kts
09-Sep-14 18:58 33.924405 -116.667345 294 8000ft 166kts
09-Sep-14 18:59 33.941861 -116.719714 294 7998ft 169kts
09-Sep-14 19:00 33.947391 -116.776797 271 7881ft 176kts
09-Sep-14 19:01 33.945351 -116.835482 272 7886ft 174kts
09-Sep-14 19:02 33.943338 -116.893811 272 7887ft 174kts
09-Sep-14 19:03 33.941296 -116.952225 272 7888ft 174kts
09-Sep-14 19:04 33.939217 -117.010887 271 7891ft 175kts
09-Sep-14 19:05 33.937109 -117.069549 271 7884ft 175kts
09-Sep-14 19:06 33.935215 -117.128234 271 7890ft 175kts
09-Sep-14 19:07 33.906717 -117.166662 189 7892ft 195kts
09-Sep-14 19:08 33.852499 -117.174229 190 7891ft 196kts
09-Sep-14 19:09 33.798015 -117.182238 190 7891ft 197kts
09-Sep-14 19:10 33.776572 -117.225954 275 7891ft 173kts
09-Sep-14 19:11 33.777506 -117.284281 274 7890ft 174kts
09-Sep-14 19:12 33.778122 -117.342914 274 7890ft 175kts
09-Sep-14 19:13 33.778699 -117.401401 274 7895ft 175kts
09-Sep-14 19:14 33.779253 -117.460407 274 7892ft 176kts
09-Sep-14 19:15 33.779775 -117.519112 274 7888ft 175kts
09-Sep-14 19:16 33.780274 -117.578004 274 7870ft 176kts
09-Sep-14 19:17 33.780738 -117.636399 274 7892ft 174kts
09-Sep-14 19:18 33.781180 -117.695349 274 7890ft 175kts
09-Sep-14 19:19 33.781591 -117.753995 274 7890ft 175kts
09-Sep-14 19:20 33.781974 -117.812535 274 7890ft 175kts
09-Sep-14 19:21 33.782322 -117.870736 274 7988ft 170kts
09-Sep-14 19:22 33.782612 -117.924637 275 7808ft 143kts
09-Sep-14 19:23 33.782870 -117.969106 275 7327ft 135kts
09-Sep-14 19:24 33.775452 -118.013914 212 6432ft 162kts
09-Sep-14 19:25 33.729108 -118.011735 148 5531ft 174kts
09-Sep-14 19:26 33.713138 -117.959462 73 4625ft 165kts
09-Sep-14 19:27 33.749730 -117.940543 6 3725ft 150kts
09-Sep-14 19:28 33.776821 -117.966396 271 2811ft 150kts
09-Sep-14 19:29 33.779425 -118.015786 279 2005ft 142kts
09-Sep-14 19:30 33.781431 -118.056895 246 1999ft 123kts
09-Sep-14 19:31 33.760311 -118.091483 238 2000ft 132kts
09-Sep-14 19:32 33.738388 -118.127316 237 2000ft 134kts
09-Sep-14 19:33 33.715790 -118.163775 237 2000ft 137kts
09-Sep-14 19:34 33.712867 -118.201777 308 2000ft 128kts
09-Sep-14 19:35 33.734538 -118.234600 309 1993ft 113kts
09-Sep-14 19:36 33.751979 -118.261034 309 1836ft 102kts
09-Sep-14 19:37 33.770299 -118.288678 309 1168ft 107kts
09-Sep-14 19:38 33.788292 -118.315814 309 559ft 98kts
09-Sep-14 19:39 33.802309 -118.337040 310 105ft 53kts
09-Sep-14 19:40 33.805764 -118.343378 287 105ft 11kts

Navigation Log

Ident Type
Flight plan parsing failed, navigation log unavailable